sensor_id;sensor_type;location;lat;lon;timestamp;pressure;altitude;pressure_sealevel;temperature;humidity
54948;BME280;41113;41.882;12.530;2023-04-27T00:01:31;101076.50;;;15.82;71.37
54948;BME280;41113;41.882;12.530;2023-04-27T00:03:57;101071.59;;;15.85;71.23
54948;BME280;41113;41.882;12.530;2023-04-27T00:06:22;101069.91;;;15.84;70.97
54948;BME280;41113;41.882;12.530;2023-04-27T00:08:48;101067.88;;;15.86;70.34
54948;BME280;41113;41.882;12.530;2023-04-27T00:11:13;101067.88;;;15.86;70.10
54948;BME280;41113;41.882;12.530;2023-04-27T00:13:39;101067.16;;;15.76;70.02
54948;BME280;41113;41.882;12.530;2023-04-27T00:16:04;101070.97;;;15.40;70.86
54948;BME280;41113;41.882;12.530;2023-04-27T00:18:31;101074.84;;;15.19;71.38
54948;BME280;41113;41.882;12.530;2023-04-27T00:20:56;101073.78;;;15.12;71.79
54948;BME280;41113;41.882;12.530;2023-04-27T00:23:23;101067.00;;;15.08;72.05
54948;BME280;41113;41.882;12.530;2023-04-27T00:25:52;101067.38;;;15.13;71.53
54948;BME280;41113;41.882;12.530;2023-04-27T00:28:17;101071.44;;;15.17;70.96
54948;BME280;41113;41.882;12.530;2023-04-27T00:30:42;101067.53;;;15.12;70.60
54948;BME280;41113;41.882;12.530;2023-04-27T00:33:09;101069.97;;;15.23;70.29
54948;BME280;41113;41.882;12.530;2023-04-27T00:35:36;101076.69;;;15.37;69.48
54948;BME280;41113;41.882;12.530;2023-04-27T00:38:01;101078.59;;;15.44;68.78
54948;BME280;41113;41.882;12.530;2023-04-27T00:40:26;101060.88;;;15.50;68.23
54948;BME280;41113;41.882;12.530;2023-04-27T00:42:52;101063.03;;;15.46;67.41
54948;BME280;41113;41.882;12.530;2023-04-27T00:45:17;101058.66;;;15.45;66.93
54948;BME280;41113;41.882;12.530;2023-04-27T00:47:43;101060.88;;;15.50;66.21
54948;BME280;41113;41.882;12.530;2023-04-27T00:50:09;101057.16;;;15.51;65.54
54948;BME280;41113;41.882;12.530;2023-04-27T00:52:36;101072.00;;;15.47;65.23
54948;BME280;41113;41.882;12.530;2023-04-27T00:55:03;101072.00;;;15.47;64.79
54948;BME280;41113;41.882;12.530;2023-04-27T00:57:29;101069.44;;;15.19;61.71
54948;BME280;41113;41.882;12.530;2023-04-27T00:59:54;101074.88;;;14.84;63.77
54948;BME280;41113;41.882;12.530;2023-04-27T01:02:20;101063.59;;;14.71;62.46
54948;BME280;41113;41.882;12.530;2023-04-27T01:04:47;101069.47;;;14.66;64.17
54948;BME280;41113;41.882;12.530;2023-04-27T01:07:14;101070.94;;;14.78;64.40
54948;BME280;41113;41.882;12.530;2023-04-27T01:09:39;101066.38;;;14.79;64.32
54948;BME280;41113;41.882;12.530;2023-04-27T01:12:05;101066.19;;;14.62;64.27
54948;BME280;41113;41.882;12.530;2023-04-27T01:14:31;101069.97;;;14.52;65.00
54948;BME280;41113;41.882;12.530;2023-04-27T01:16:56;101070.00;;;14.42;65.15
54948;BME280;41113;41.882;12.530;2023-04-27T01:19:22;101063.38;;;14.37;65.40
54948;BME280;41113;41.882;12.530;2023-04-27T01:21:47;101069.94;;;14.34;65.43
54948;BME280;41113;41.882;12.530;2023-04-27T01:24:13;101072.06;;;14.30;66.06
54948;BME280;41113;41.882;12.530;2023-04-27T01:26:38;101072.97;;;14.21;66.50
54948;BME280;41113;41.882;12.530;2023-04-27T01:29:03;101061.97;;;14.05;66.53
54948;BME280;41113;41.882;12.530;2023-04-27T01:31:29;101066.00;;;13.91;66.71
54948;BME280;41113;41.882;12.530;2023-04-27T01:33:54;101076.84;;;13.82;66.89
54948;BME280;41113;41.882;12.530;2023-04-27T01:36:19;101069.91;;;13.79;66.75
54948;BME280;41113;41.882;12.530;2023-04-27T01:38:45;101072.00;;;13.85;66.67
54948;BME280;41113;41.882;12.530;2023-04-27T01:41:10;101075.75;;;13.75;66.62
54948;BME280;41113;41.882;12.530;2023-04-27T01:43:35;101076.59;;;13.65;66.56
54948;BME280;41113;41.882;12.530;2023-04-27T01:46:08;101077.38;;;13.48;66.95
54948;BME280;41113;41.882;12.530;2023-04-27T01:48:34;101078.06;;;13.50;66.96
54948;BME280;41113;41.882;12.530;2023-04-27T01:51:00;101082.34;;;13.43;66.90
54948;BME280;41113;41.882;12.530;2023-04-27T01:53:27;101085.78;;;13.35;67.12
54948;BME280;41113;41.882;12.530;2023-04-27T01:55:52;101084.78;;;13.36;66.86
54948;BME280;41113;41.882;12.530;2023-04-27T01:58:17;101095.72;;;13.25;66.98
54948;BME280;41113;41.882;12.530;2023-04-27T02:00:44;101102.22;;;13.32;66.67
54948;BME280;41113;41.882;12.530;2023-04-27T02:03:10;101099.13;;;13.18;67.10
54948;BME280;41113;41.882;12.530;2023-04-27T02:05:36;101105.94;;;13.22;66.93
54948;BME280;41113;41.882;12.530;2023-04-27T02:08:01;101101.84;;;13.18;66.91
54948;BME280;41113;41.882;12.530;2023-04-27T02:10:27;101106.22;;;13.09;66.99
54948;BME280;41113;41.882;12.530;2023-04-27T02:12:52;101103.09;;;13.04;67.13
54948;BME280;41113;41.882;12.530;2023-04-27T02:15:17;101107.78;;;13.02;67.13
54948;BME280;41113;41.882;12.530;2023-04-27T02:17:43;101105.78;;;13.04;66.86
54948;BME280;41113;41.882;12.530;2023-04-27T02:20:11;101109.19;;;12.77;66.79
54948;BME280;41113;41.882;12.530;2023-04-27T02:22:40;101110.59;;;12.71;66.90
54948;BME280;41113;41.882;12.530;2023-04-27T02:25:07;101109.47;;;12.74;66.67
54948;BME280;41113;41.882;12.530;2023-04-27T02:27:32;101110.13;;;12.57;66.84
54948;BME280;41113;41.882;12.530;2023-04-27T02:30:03;101112.25;;;12.53;67.07
54948;BME280;41113;41.882;12.530;2023-04-27T02:32:29;101112.97;;;12.55;66.76
54948;BME280;41113;41.882;12.530;2023-04-27T02:34:55;101109.00;;;12.59;66.75
54948;BME280;41113;41.882;12.530;2023-04-27T02:37:20;101098.50;;;12.56;66.56
54948;BME280;41113;41.882;12.530;2023-04-27T02:39:46;101099.22;;;12.68;66.16
54948;BME280;41113;41.882;12.530;2023-04-27T02:42:11;101092.81;;;12.59;66.67
54948;BME280;41113;41.882;12.530;2023-04-27T02:44:36;101099.75;;;12.52;66.66
54948;BME280;41113;41.882;12.530;2023-04-27T02:47:02;101096.50;;;12.39;67.29
54948;BME280;41113;41.882;12.530;2023-04-27T02:49:27;101096.63;;;12.47;67.13
54948;BME280;41113;41.882;12.530;2023-04-27T02:51:52;101095.38;;;12.51;66.80
54948;BME280;41113;41.882;12.530;2023-04-27T02:54:18;101094.84;;;12.76;66.03
54948;BME280;41113;41.882;12.530;2023-04-27T02:56:43;101090.72;;;12.82;65.65
54948;BME280;41113;41.882;12.530;2023-04-27T02:59:08;101091.16;;;12.87;65.20
54948;BME280;41113;41.882;12.530;2023-04-27T03:01:34;101088.59;;;12.76;65.53
54948;BME280;41113;41.882;12.530;2023-04-27T03:03:59;101083.19;;;12.66;65.77
54948;BME280;41113;41.882;12.530;2023-04-27T03:06:25;101087.44;;;12.59;65.96
54948;BME280;41113;41.882;12.530;2023-04-27T03:08:50;101092.13;;;12.67;65.82
54948;BME280;41113;41.882;12.530;2023-04-27T03:11:15;101092.28;;;12.85;65.33
54948;BME280;41113;41.882;12.530;2023-04-27T03:13:41;101095.28;;;13.01;64.92
54948;BME280;41113;41.882;12.530;2023-04-27T03:16:07;101101.09;;;12.87;64.95
54948;BME280;41113;41.882;12.530;2023-04-27T03:18:33;101092.16;;;12.76;65.25
54948;BME280;41113;41.882;12.530;2023-04-27T03:21:08;101088.31;;;12.89;65.14
54948;BME280;41113;41.882;12.530;2023-04-27T03:23:35;101085.75;;;12.97;64.63
54948;BME280;41113;41.882;12.530;2023-04-27T03:26:07;101089.75;;;13.02;64.53
54948;BME280;41113;41.882;12.530;2023-04-27T03:28:33;101084.63;;;13.09;64.25
54948;BME280;41113;41.882;12.530;2023-04-27T03:30:59;101086.47;;;12.80;64.36
54948;BME280;41113;41.882;12.530;2023-04-27T03:33:25;101095.94;;;12.64;64.46
54948;BME280;41113;41.882;12.530;2023-04-27T03:35:56;101087.72;;;12.56;64.83
54948;BME280;41113;41.882;12.530;2023-04-27T03:38:22;101092.13;;;12.67;64.61
54948;BME280;41113;41.882;12.530;2023-04-27T03:40:49;101102.19;;;12.55;64.58
54948;BME280;41113;41.882;12.530;2023-04-27T03:43:14;101097.88;;;12.33;65.15
54948;BME280;41113;41.882;12.530;2023-04-27T03:45:40;101096.97;;;12.13;65.81
54948;BME280;41113;41.882;12.530;2023-04-27T03:48:05;101094.91;;;11.96;66.04
54948;BME280;41113;41.882;12.530;2023-04-27T03:50:31;101098.84;;;11.92;66.43
54948;BME280;41113;41.882;12.530;2023-04-27T03:52:56;101103.34;;;11.82;66.33
54948;BME280;41113;41.882;12.530;2023-04-27T03:55:21;101099.94;;;11.80;66.54
54948;BME280;41113;41.882;12.530;2023-04-27T03:57:47;101097.53;;;11.66;67.21
54948;BME280;41113;41.882;12.530;2023-04-27T04:00:12;101096.13;;;11.62;67.52
54948;BME280;41113;41.882;12.530;2023-04-27T04:02:40;101098.88;;;11.71;66.96
54948;BME280;41113;41.882;12.530;2023-04-27T04:05:06;101097.28;;;11.69;66.91
54948;BME280;41113;41.882;12.530;2023-04-27T04:07:31;101098.66;;;11.63;67.01
54948;BME280;41113;41.882;12.530;2023-04-27T04:09:57;101099.78;;;11.61;67.22
54948;BME280;41113;41.882;12.530;2023-04-27T04:12:22;101108.03;;;11.69;67.59
54948;BME280;41113;41.882;12.530;2023-04-27T04:14:47;101105.53;;;11.98;66.88
54948;BME280;41113;41.882;12.530;2023-04-27T04:17:14;101112.13;;;12.14;66.44
54948;BME280;41113;41.882;12.530;2023-04-27T04:19:39;101113.44;;;12.30;66.11
54948;BME280;41113;41.882;12.530;2023-04-27T04:22:05;101115.78;;;12.04;66.97
54948;BME280;41113;41.882;12.530;2023-04-27T04:24:30;101121.88;;;12.06;67.42
54948;BME280;41113;41.882;12.530;2023-04-27T04:26:56;101127.19;;;11.96;67.56
54948;BME280;41113;41.882;12.530;2023-04-27T04:29:22;101124.91;;;11.92;68.54
54948;BME280;41113;41.882;12.530;2023-04-27T04:31:48;101125.50;;;12.35;67.84
54948;BME280;41113;41.882;12.530;2023-04-27T04:34:13;101124.81;;;13.51;63.96
54948;BME280;41113;41.882;12.530;2023-04-27T04:36:40;101119.88;;;14.57;60.45
54948;BME280;41113;41.882;12.530;2023-04-27T04:39:05;101122.00;;;15.35;57.74
54948;BME280;41113;41.882;12.530;2023-04-27T04:41:31;101136.66;;;15.50;56.85
54948;BME280;41113;41.882;12.530;2023-04-27T04:43:57;101143.56;;;16.14;55.53
54948;BME280;41113;41.882;12.530;2023-04-27T04:46:23;101158.31;;;16.19;54.13
54948;BME280;41113;41.882;12.530;2023-04-27T04:48:49;101145.44;;;16.56;52.42
54948;BME280;41113;41.882;12.530;2023-04-27T04:51:15;101148.03;;;17.40;50.30
54948;BME280;41113;41.882;12.530;2023-04-27T04:53:41;101151.94;;;17.37;50.01
54948;BME280;41113;41.882;12.530;2023-04-27T04:56:15;101151.25;;;17.76;48.52
54948;BME280;41113;41.882;12.530;2023-04-27T04:58:42;101152.63;;;18.44;47.59
54948;BME280;41113;41.882;12.530;2023-04-27T05:01:08;101151.72;;;18.59;47.59
54948;BME280;41113;41.882;12.530;2023-04-27T05:03:33;101164.28;;;18.05;47.37
54948;BME280;41113;41.882;12.530;2023-04-27T05:06:00;101165.31;;;17.55;48.89
54948;BME280;41113;41.882;12.530;2023-04-27T05:08:25;101159.88;;;18.04;47.42
54948;BME280;41113;41.882;12.530;2023-04-27T05:10:52;101162.47;;;18.45;46.05
54948;BME280;41113;41.882;12.530;2023-04-27T05:13:18;101167.28;;;19.58;45.78
54948;BME280;41113;41.882;12.530;2023-04-27T05:15:46;101173.63;;;21.06;42.44
54948;BME280;41113;41.882;12.530;2023-04-27T05:18:12;101180.63;;;20.94;42.01
54948;BME280;41113;41.882;12.530;2023-04-27T05:20:37;101175.56;;;20.91;40.00
54948;BME280;41113;41.882;12.530;2023-04-27T05:23:03;101188.78;;;20.58;42.49
54948;BME280;41113;41.882;12.530;2023-04-27T05:25:33;101187.53;;;20.75;42.07
54948;BME280;41113;41.882;12.530;2023-04-27T05:27:58;101184.94;;;21.03;41.83
54948;BME280;41113;41.882;12.530;2023-04-27T05:30:24;101194.53;;;20.63;39.77
54948;BME280;41113;41.882;12.530;2023-04-27T05:32:49;101199.13;;;21.71;38.18
54948;BME280;41113;41.882;12.530;2023-04-27T05:35:15;101204.41;;;22.00;40.00
54948;BME280;41113;41.882;12.530;2023-04-27T05:37:40;101191.28;;;21.89;38.01
54948;BME280;41113;41.882;12.530;2023-04-27T05:40:06;101206.19;;;20.87;39.08
54948;BME280;41113;41.882;12.530;2023-04-27T05:42:35;101211.19;;;20.01;42.09
54948;BME280;41113;41.882;12.530;2023-04-27T05:45:01;101210.63;;;19.91;41.40
54948;BME280;41113;41.882;12.530;2023-04-27T05:47:27;101222.44;;;20.80;41.17
54948;BME280;41113;41.882;12.530;2023-04-27T05:49:53;101223.13;;;20.67;40.17
54948;BME280;41113;41.882;12.530;2023-04-27T05:52:19;101232.41;;;21.02;40.67
54948;BME280;41113;41.882;12.530;2023-04-27T05:54:46;101234.03;;;20.97;41.08
54948;BME280;41113;41.882;12.530;2023-04-27T05:57:12;101234.03;;;21.48;39.83
54948;BME280;41113;41.882;12.530;2023-04-27T05:59:37;101229.44;;;20.83;41.09
54948;BME280;41113;41.882;12.530;2023-04-27T06:02:02;101225.66;;;20.69;40.72
54948;BME280;41113;41.882;12.530;2023-04-27T06:04:28;101227.25;;;19.58;41.56
54948;BME280;41113;41.882;12.530;2023-04-27T06:06:53;101233.31;;;19.07;43.67
54948;BME280;41113;41.882;12.530;2023-04-27T06:09:19;101230.38;;;20.45;42.16
54948;BME280;41113;41.882;12.530;2023-04-27T06:11:45;101229.34;;;21.63;40.20
54948;BME280;41113;41.882;12.530;2023-04-27T06:14:11;101226.25;;;20.64;40.28
54948;BME280;41113;41.882;12.530;2023-04-27T06:16:37;101224.28;;;20.58;40.36
54948;BME280;41113;41.882;12.530;2023-04-27T06:19:04;101229.28;;;21.20;40.12
54948;BME280;41113;41.882;12.530;2023-04-27T06:21:33;101221.69;;;22.01;38.47
54948;BME280;41113;41.882;12.530;2023-04-27T06:23:59;101226.19;;;23.12;38.08
54948;BME280;41113;41.882;12.530;2023-04-27T06:26:25;101227.63;;;23.02;35.79
54948;BME280;41113;41.882;12.530;2023-04-27T06:28:51;101234.16;;;23.68;36.89
54948;BME280;41113;41.882;12.530;2023-04-27T06:31:16;101228.91;;;22.71;36.76
54948;BME280;41113;41.882;12.530;2023-04-27T06:33:42;101227.78;;;23.48;36.73
54948;BME280;41113;41.882;12.530;2023-04-27T06:36:08;101224.63;;;23.51;36.13
54948;BME280;41113;41.882;12.530;2023-04-27T06:38:35;101230.78;;;23.66;35.97
54948;BME280;41113;41.882;12.530;2023-04-27T06:41:02;101236.22;;;23.46;35.76
54948;BME280;41113;41.882;12.530;2023-04-27T06:43:32;101237.38;;;22.42;37.52
54948;BME280;41113;41.882;12.530;2023-04-27T06:45:59;101236.09;;;21.88;38.74
54948;BME280;41113;41.882;12.530;2023-04-27T06:48:24;101248.31;;;20.99;40.49
54948;BME280;41113;41.882;12.530;2023-04-27T06:50:51;101242.44;;;20.13;42.59
54948;BME280;41113;41.882;12.530;2023-04-27T06:53:17;101244.56;;;20.41;42.30
54948;BME280;41113;41.882;12.530;2023-04-27T06:55:42;101249.06;;;20.34;42.60
54948;BME280;41113;41.882;12.530;2023-04-27T06:58:28;101255.63;;;19.87;43.68
54948;BME280;41113;41.882;12.530;2023-04-27T07:00:53;101252.72;;;19.88;44.18
54948;BME280;41113;41.882;12.530;2023-04-27T07:03:19;101244.22;;;19.83;44.57
54948;BME280;41113;41.882;12.530;2023-04-27T07:05:46;101248.41;;;19.94;44.62
54948;BME280;41113;41.882;12.530;2023-04-27T07:08:12;101250.06;;;19.49;45.76
54948;BME280;41113;41.882;12.530;2023-04-27T07:10:37;101241.59;;;19.21;46.80
54948;BME280;41113;41.882;12.530;2023-04-27T07:13:07;101245.81;;;19.24;46.79
54948;BME280;41113;41.882;12.530;2023-04-27T07:15:33;101241.22;;;19.47;46.93
54948;BME280;41113;41.882;12.530;2023-04-27T07:17:58;101236.81;;;19.54;46.86
54948;BME280;41113;41.882;12.530;2023-04-27T07:20:24;101237.72;;;19.39;48.05
54948;BME280;41113;41.882;12.530;2023-04-27T07:22:59;101244.06;;;19.62;47.63
54948;BME280;41113;41.882;12.530;2023-04-27T07:25:24;101249.09;;;19.42;48.75
54948;BME280;41113;41.882;12.530;2023-04-27T07:27:49;101246.94;;;19.38;50.19
54948;BME280;41113;41.882;12.530;2023-04-27T07:30:16;101251.28;;;19.24;50.87
54948;BME280;41113;41.882;12.530;2023-04-27T07:32:42;101249.03;;;19.58;49.02
54948;BME280;41113;41.882;12.530;2023-04-27T07:35:20;101248.69;;;19.62;48.50
54948;BME280;41113;41.882;12.530;2023-04-27T07:37:56;101252.44;;;19.61;48.51
54948;BME280;41113;41.882;12.530;2023-04-27T07:40:22;101250.59;;;19.76;48.43
54948;BME280;41113;41.882;12.530;2023-04-27T07:42:51;101242.69;;;19.66;48.39
54948;BME280;41113;41.882;12.530;2023-04-27T07:45:19;101242.19;;;20.23;47.13
54948;BME280;41113;41.882;12.530;2023-04-27T07:47:46;101249.28;;;20.47;46.23
54948;BME280;41113;41.882;12.530;2023-04-27T07:50:11;101239.41;;;20.08;47.02
54948;BME280;41113;41.882;12.530;2023-04-27T07:52:41;101251.81;;;19.96;47.18
54948;BME280;41113;41.882;12.530;2023-04-27T07:55:07;101247.88;;;20.13;46.94
54948;BME280;41113;41.882;12.530;2023-04-27T07:57:34;101248.69;;;20.22;47.01
54948;BME280;41113;41.882;12.530;2023-04-27T07:59:59;101248.34;;;20.69;46.11
54948;BME280;41113;41.882;12.530;2023-04-27T08:02:26;101247.34;;;21.21;44.89
54948;BME280;41113;41.882;12.530;2023-04-27T08:04:54;101245.91;;;21.40;44.29
54948;BME280;41113;41.882;12.530;2023-04-27T08:07:19;101252.34;;;21.18;44.98
54948;BME280;41113;41.882;12.530;2023-04-27T08:09:45;101247.00;;;21.24;44.47
54948;BME280;41113;41.882;12.530;2023-04-27T08:12:10;101250.41;;;20.97;45.30
54948;BME280;41113;41.882;12.530;2023-04-27T08:14:36;101243.69;;;21.29;44.50
54948;BME280;41113;41.882;12.530;2023-04-27T08:17:01;101246.00;;;21.47;44.37
54948;BME280;41113;41.882;12.530;2023-04-27T08:19:27;101243.38;;;21.60;43.71
54948;BME280;41113;41.882;12.530;2023-04-27T08:21:52;101244.56;;;21.72;44.06
54948;BME280;41113;41.882;12.530;2023-04-27T08:24:17;101241.97;;;21.85;44.01
54948;BME280;41113;41.882;12.530;2023-04-27T08:26:44;101242.81;;;21.86;44.29
54948;BME280;41113;41.882;12.530;2023-04-27T08:29:10;101238.03;;;21.94;44.22
54948;BME280;41113;41.882;12.530;2023-04-27T08:31:35;101241.38;;;21.90;44.28
54948;BME280;41113;41.882;12.530;2023-04-27T08:34:00;101238.28;;;21.99;44.30
54948;BME280;41113;41.882;12.530;2023-04-27T08:36:26;101240.69;;;22.09;44.17
54948;BME280;41113;41.882;12.530;2023-04-27T08:38:53;101239.72;;;22.17;44.20
54948;BME280;41113;41.882;12.530;2023-04-27T08:41:22;101237.75;;;22.11;44.43
54948;BME280;41113;41.882;12.530;2023-04-27T08:43:50;101237.75;;;22.11;44.51
54948;BME280;41113;41.882;12.530;2023-04-27T08:46:20;101236.56;;;22.13;44.45
54948;BME280;41113;41.882;12.530;2023-04-27T08:48:46;101247.38;;;22.28;44.11
54948;BME280;41113;41.882;12.530;2023-04-27T08:51:14;101242.63;;;22.43;43.95
54948;BME280;41113;41.882;12.530;2023-04-27T08:53:54;101254.91;;;22.47;43.58
54948;BME280;41113;41.882;12.530;2023-04-27T08:56:22;101247.81;;;22.59;43.21
54948;BME280;41113;41.882;12.530;2023-04-27T08:58:49;101243.03;;;22.40;42.34
54948;BME280;41113;41.882;12.530;2023-04-27T09:01:16;101245.13;;;22.38;43.25
54948;BME280;41113;41.882;12.530;2023-04-27T09:03:43;101244.25;;;22.31;42.41
54948;BME280;41113;41.882;12.530;2023-04-27T09:06:15;101248.84;;;22.24;42.60
54948;BME280;41113;41.882;12.530;2023-04-27T09:09:00;101246.25;;;22.16;42.60
54948;BME280;41113;41.882;12.530;2023-04-27T09:11:44;101247.19;;;22.29;42.61
54948;BME280;41113;41.882;12.530;2023-04-27T09:14:20;101247.13;;;22.23;41.28
54948;BME280;41113;41.882;12.530;2023-04-27T09:17:09;101247.13;;;22.23;41.91
54948;BME280;41113;41.882;12.530;2023-04-27T09:19:34;101253.09;;;22.33;43.20
54948;BME280;41113;41.882;12.530;2023-04-27T09:22:08;101243.81;;;22.27;41.27
54948;BME280;41113;41.882;12.530;2023-04-27T09:24:35;101236.69;;;22.33;42.63
54948;BME280;41113;41.882;12.530;2023-04-27T09:27:18;101237.03;;;22.23;41.84
54948;BME280;41113;41.882;12.530;2023-04-27T09:29:43;101238.94;;;22.23;42.79
54948;BME280;41113;41.882;12.530;2023-04-27T09:32:17;101237.88;;;22.24;41.87
54948;BME280;41113;41.882;12.530;2023-04-27T09:34:44;101237.13;;;22.36;41.83
54948;BME280;41113;41.882;12.530;2023-04-27T09:37:10;101240.16;;;22.48;41.63
54948;BME280;41113;41.882;12.530;2023-04-27T09:39:37;101237.25;;;22.56;41.33
54948;BME280;41113;41.882;12.530;2023-04-27T09:42:03;101246.59;;;22.68;41.15
54948;BME280;41113;41.882;12.530;2023-04-27T09:44:31;101246.53;;;22.55;41.01
54948;BME280;41113;41.882;12.530;2023-04-27T09:46:58;101240.66;;;22.58;40.91
54948;BME280;41113;41.882;12.530;2023-04-27T09:49:25;101241.13;;;22.68;40.75
54948;BME280;41113;41.882;12.530;2023-04-27T09:51:54;101237.81;;;22.80;40.59
54948;BME280;41113;41.882;12.530;2023-04-27T09:54:26;101234.94;;;22.88;40.06
54948;BME280;41113;41.882;12.530;2023-04-27T09:57:07;101236.63;;;22.89;38.30
54948;BME280;41113;41.882;12.530;2023-04-27T09:59:52;101236.06;;;22.72;37.87
54948;BME280;41113;41.882;12.530;2023-04-27T10:02:29;101237.28;;;22.91;39.35
54948;BME280;41113;41.882;12.530;2023-04-27T10:07:47;101226.09;;;22.86;40.02
54948;BME280;41113;41.882;12.530;2023-04-27T10:10:17;101240.31;;;22.75;39.55
54948;BME280;41113;41.882;12.530;2023-04-27T10:12:43;101235.22;;;22.72;40.52
54948;BME280;41113;41.882;12.530;2023-04-27T10:15:15;101231.00;;;22.69;40.03
54948;BME280;41113;41.882;12.530;2023-04-27T10:17:49;101233.94;;;22.67;39.60
54948;BME280;41113;41.882;12.530;2023-04-27T10:20:15;101238.38;;;22.68;40.45
54948;BME280;41113;41.882;12.530;2023-04-27T10:25:19;101230.97;;;22.62;40.92
54948;BME280;41113;41.882;12.530;2023-04-27T10:27:53;101245.25;;;22.51;40.90
54948;BME280;41113;41.882;12.530;2023-04-27T10:30:20;101231.97;;;22.48;41.48
54948;BME280;41113;41.882;12.530;2023-04-27T10:32:53;101224.53;;;22.42;40.69
54948;BME280;41113;41.882;12.530;2023-04-27T10:35:20;101231.22;;;22.33;41.15
54948;BME280;41113;41.882;12.530;2023-04-27T10:37:46;101226.59;;;22.33;40.93
54948;BME280;41113;41.882;12.530;2023-04-27T10:40:13;101219.41;;;22.32;40.54
54948;BME280;41113;41.882;12.530;2023-04-27T10:42:40;101217.00;;;22.44;40.51
54948;BME280;41113;41.882;12.530;2023-04-27T10:45:06;101226.72;;;22.53;40.53
54948;BME280;41113;41.882;12.530;2023-04-27T10:47:40;101219.78;;;22.57;40.94
54948;BME280;41113;41.882;12.530;2023-04-27T10:50:10;101215.13;;;22.51;40.69
54948;BME280;41113;41.882;12.530;2023-04-27T10:52:43;101211.53;;;22.51;40.96
54948;BME280;41113;41.882;12.530;2023-04-27T10:55:17;101216.19;;;22.50;41.63
54948;BME280;41113;41.882;12.530;2023-04-27T10:57:48;101210.75;;;22.63;40.98
54948;BME280;41113;41.882;12.530;2023-04-27T11:00:15;101215.13;;;22.86;40.80
54948;BME280;41113;41.882;12.530;2023-04-27T11:02:45;101211.78;;;22.97;40.72
54948;BME280;41113;41.882;12.530;2023-04-27T11:05:22;101215.41;;;23.04;40.46
54948;BME280;41113;41.882;12.530;2023-04-27T11:07:50;101216.88;;;23.07;40.71
54948;BME280;41113;41.882;12.530;2023-04-27T11:10:16;101214.31;;;22.92;40.74
54948;BME280;41113;41.882;12.530;2023-04-27T11:12:42;101214.59;;;22.76;41.25
54948;BME280;41113;41.882;12.530;2023-04-27T11:15:08;101217.22;;;22.84;40.92
54948;BME280;41113;41.882;12.530;2023-04-27T11:17:34;101213.06;;;23.01;40.68
54948;BME280;41113;41.882;12.530;2023-04-27T11:19:59;101218.56;;;23.01;40.44
54948;BME280;41113;41.882;12.530;2023-04-27T11:22:25;101208.03;;;23.05;40.58
54948;BME280;41113;41.882;12.530;2023-04-27T11:24:51;101207.66;;;23.14;40.50
54948;BME280;41113;41.882;12.530;2023-04-27T11:27:17;101207.22;;;23.11;40.69
54948;BME280;41113;41.882;12.530;2023-04-27T11:29:43;101199.16;;;23.03;40.48
54948;BME280;41113;41.882;12.530;2023-04-27T11:32:20;101208.00;;;22.98;40.06
54948;BME280;41113;41.882;12.530;2023-04-27T11:34:51;101206.13;;;23.05;39.48
54948;BME280;41113;41.882;12.530;2023-04-27T11:37:26;101204.28;;;23.12;38.23
54948;BME280;41113;41.882;12.530;2023-04-27T11:39:53;101201.28;;;23.07;39.09
54948;BME280;41113;41.882;12.530;2023-04-27T11:42:22;101200.84;;;23.04;39.05
54948;BME280;41113;41.882;12.530;2023-04-27T11:45:01;101197.06;;;23.05;37.20
54948;BME280;41113;41.882;12.530;2023-04-27T11:47:29;101197.06;;;23.05;38.58
54948;BME280;41113;41.882;12.530;2023-04-27T11:49:56;101199.59;;;23.06;38.26
54948;BME280;41113;41.882;12.530;2023-04-27T11:52:33;101199.59;;;23.06;35.85
54948;BME280;41113;41.882;12.530;2023-04-27T11:55:00;101194.59;;;23.16;37.67
54948;BME280;41113;41.882;12.530;2023-04-27T11:57:30;101188.88;;;23.11;35.51
54948;BME280;41113;41.882;12.530;2023-04-27T11:59:57;101186.53;;;23.08;37.06
54948;BME280;41113;41.882;12.530;2023-04-27T12:02:25;101188.22;;;23.03;36.40
54948;BME280;41113;41.882;12.530;2023-04-27T12:04:51;101198.78;;;23.12;33.51
54948;BME280;41113;41.882;12.530;2023-04-27T12:07:17;101198.19;;;23.23;35.65
54948;BME280;41113;41.882;12.530;2023-04-27T12:09:43;101187.41;;;23.15;32.95
54948;BME280;41113;41.882;12.530;2023-04-27T12:12:10;101182.56;;;23.17;35.19
54948;BME280;41113;41.882;12.530;2023-04-27T12:14:36;101188.69;;;23.19;34.89
54948;BME280;41113;41.882;12.530;2023-04-27T12:17:01;101181.91;;;23.09;34.27
54948;BME280;41113;41.882;12.530;2023-04-27T12:19:27;101174.72;;;23.01;30.44
54948;BME280;41113;41.882;12.530;2023-04-27T12:21:53;101174.34;;;23.11;33.34
54948;BME280;41113;41.882;12.530;2023-04-27T12:24:19;101174.31;;;23.04;33.14
54948;BME280;41113;41.882;12.530;2023-04-27T12:26:46;101174.50;;;22.96;32.46
54948;BME280;41113;41.882;12.530;2023-04-27T12:29:12;101180.59;;;22.98;32.48
54948;BME280;41113;41.882;12.530;2023-04-27T12:31:38;101181.03;;;22.95;32.02
54948;BME280;41113;41.882;12.530;2023-04-27T12:34:03;101189.44;;;22.93;32.23
54948;BME280;41113;41.882;12.530;2023-04-27T12:36:28;101185.78;;;22.80;31.17
54948;BME280;41113;41.882;12.530;2023-04-27T12:38:58;101181.09;;;22.74;29.34
54948;BME280;41113;41.882;12.530;2023-04-27T12:41:24;101189.72;;;22.71;30.43
54948;BME280;41113;41.882;12.530;2023-04-27T12:43:50;101190.78;;;22.70;31.71
54948;BME280;41113;41.882;12.530;2023-04-27T12:46:15;101181.72;;;22.69;32.04